Aviation Digital Data Service (ADDS)

Output produced by METARs form (0941 UTC 28 September 2021)
found at http://www.aviationweather.gov/metar/data/
 
VTSP 280930Z 26009KT 9999 SCT020 29/24 Q1006 NOSIG
VTSP 280900Z 27009KT 240V300 9999 FEW016 SCT020 29/25 Q1006 NOSIG
VTSP 280830Z 28010KT 9999 FEW014 SCT020 30/25 Q1006 NOSIG
VTSP 280800Z 27011KT 250V310 9999 FEW014 SCT020 30/26 Q1007 NOSIG
VTSP 280730Z 26011KT 9999 SCT020 30/25 Q1007 NOSIG
VTSP 280700Z 27008KT 240V310 9999 SCT020 30/25 Q1007 NOSIG
VTSP 280630Z 27009KT 240V310 9999 SCT020 30/25 Q1008 NOSIG
VTSP 280600Z 27009KT 230V300 9999 SCT020 30/25 Q1008 NOSIG
VTSP 280530Z 27008KT 220V320 9999 SCT020 30/25 Q1009 NOSIG
VTSP 280500Z 28008KT 240V310 9999 FEW020 30/25 Q1009 NOSIG
VTSP 280430Z 28008KT 250V310 9999 FEW020 29/25 Q1009 NOSIG
VTSP 280400Z 28007KT 240V310 9999 FEW020 29/25 Q1009 NOSIG
VTSP 280330Z 28004KT 240V310 9999 SCT020 28/25 Q1010 NOSIG
VTSP 280300Z 29005KT 9999 -RA FEW015TCU SCT020 27/24 Q1010 NOSIG
VTSP 280230Z VRB03KT 9000 4000NW -RA FEW015 FEW018TCU BKN020 28/25 Q1010 TEMPO 3000 RA
VTSP 280200Z 09004KT 050V130 9999 VCSH FEW014 FEW018TCU SCT020 28/25 Q1010 TEMPO FM0235 TL0250 3000 RA
VTSP 280130Z 09005KT 9999 FEW014 SCT020 27/25 Q1010 NOSIG
VTSP 280100Z 09004KT 060V120 9999 FEW020 26/25 Q1010 NOSIG
VTSP 280030Z 10003KT 070V130 9999 FEW020 25/25 Q1009 NOSIG
VTSP 280000Z 13002KT 9999 FEW020 24/24 Q1009 NOSIG
VTSP 272330Z 00000KT 9999 FEW020 24/23 Q1008 NOSIG
VTSP 272300Z VRB01KT 9999 FEW020 24/23 Q1008 NOSIG
VTSP 272230Z 10002KT 9999 FEW020 23/23 Q1008 NOSIG
VTSP 272200Z 11002KT 9999 FEW020 23/23 Q1008 NOSIG
VTSP 272130Z 00000KT 9999 FEW020 24/23 Q1008 NOSIG
VTSP 272100Z 08001KT 9999 FEW020 24/23 Q1008 NOSIG
VTSP 272030Z 11002KT 9999 FEW020 24/23 Q1008 NOSIG
VTSP 272000Z 10002KT 9999 FEW020 24/23 Q1008 NOSIG
VTSP 271930Z 09001KT 9999 FEW020 24/23 Q1008 NOSIG
VTSP 271900Z VRB01KT 9999 FEW020 24/24 Q1008 NOSIG
VTSP 271830Z 12002KT 9999 FEW020 24/23 Q1009 NOSIG
VTSP 271800Z VRB01KT 9999 FEW020 24/24 Q1009 NOSIG
VTSP 271730Z 00000KT 9999 SCT020 24/24 Q1010 NOSIG
VTSP 271700Z 00000KT 9999 FEW020 24/24 Q1010 NOSIG
VTSP 271630Z VRB02KT 9999 FEW018 25/24 Q1010 NOSIG
VTSP 271600Z VRB01KT 9999 FEW018 25/24 Q1010 NOSIG
VTSP 271530Z 10003KT 050V110 9999 FEW018 25/24 Q1010 NOSIG
VTSP 271500Z 31003KT 280V360 9999 FEW018 25/24 Q1010 NOSIG
VTSP 271430Z 30004KT 9999 FEW018 26/24 Q1010 NOSIG
VTSP 271400Z 30005KT 9999 FEW018 26/23 Q1009 NOSIG
VTSP 271330Z 28007KT 9999 SCT020 26/24 Q1009 NOSIG
VTSP 271300Z 29006KT 9999 SCT020 26/24 Q1008 NOSIG
VTSP 271230Z 29006KT 9999 SCT020 26/24 Q1008 NOSIG
VTSP 271200Z 30004KT 260V330 9999 SCT016 26/24 Q1007 NOSIG
VTSP 271130Z 29005KT 9999 SCT016 26/24 Q1006 NOSIG
VTSP 271100Z 29006KT 9999 SCT016 26/24 Q1006 NOSIG
VTSP 271030Z 29005KT 9999 FEW020 26/24 Q1006 NOSIG
VTSP 271000Z 28006KT 250V320 9999 FEW020 26/23 Q1006 NOSIG
TAF VTSP 280500Z 2806/2912 28006KT 9999 FEW020 
     TEMPO 2806/2812 25015G30KT 3000 TSRA FEW016CB SCT020 BKN100 
     BECMG 2812/2814 00000KT 
     BECMG 2902/2904 28006KT